createdAt,value
2019-03-15T00:02:12.522Z,77.70
2019-03-15T00:04:42.931Z,77.90
2019-03-15T00:07:13.427Z,77.90
2019-03-15T00:09:43.861Z,78.00
2019-03-15T00:12:16.076Z,77.90
2019-03-15T00:14:46.522Z,78.00
2019-03-15T00:17:16.943Z,78.00
2019-03-15T00:19:47.354Z,77.90
2019-03-15T00:22:17.851Z,77.70
2019-03-15T00:24:48.320Z,77.70
2019-03-15T00:27:18.747Z,77.80
2019-03-15T00:29:49.176Z,77.90
2019-03-15T00:32:19.595Z,77.80
2019-03-15T00:34:51.004Z,77.70
2019-03-15T00:37:21.469Z,77.70
2019-03-15T00:39:51.854Z,77.80
2019-03-15T00:42:22.307Z,77.90
2019-03-15T00:44:52.721Z,77.90
2019-03-15T00:47:23.224Z,77.80
2019-03-15T00:49:53.656Z,77.80
2019-03-15T00:52:25.131Z,77.70
2019-03-15T00:54:55.559Z,77.70
2019-03-15T00:57:25.972Z,77.60
2019-03-15T00:59:56.392Z,77.50
2019-03-15T01:02:26.854Z,77.60
2019-03-15T01:04:57.270Z,77.50
2019-03-15T01:07:27.812Z,77.50
2019-03-15T01:09:58.230Z,77.50
2019-03-15T01:12:28.638Z,77.50
2019-03-15T01:14:59.032Z,77.50
2019-03-15T01:17:29.483Z,77.50
2019-03-15T01:19:59.886Z,77.50
2019-03-15T01:22:30.353Z,77.30
2019-03-15T01:25:00.790Z,77.50
2019-03-15T01:27:31.257Z,77.10
2019-03-15T01:30:01.679Z,77.20
2019-03-15T01:32:32.321Z,76.90
2019-03-15T01:35:02.765Z,76.90
2019-03-15T01:37:33.235Z,76.90
2019-03-15T01:40:03.633Z,77.10
2019-03-15T01:42:34.246Z,77.20
2019-03-15T01:45:04.774Z,77.20
2019-03-15T01:47:35.243Z,77.40
2019-03-15T01:50:06.268Z,77.50
2019-03-15T01:52:36.820Z,77.60
2019-03-15T01:55:07.320Z,77.90
2019-03-15T01:57:37.754Z,77.80
2019-03-15T02:00:09.446Z,78.00
2019-03-15T02:02:39.962Z,78.20
2019-03-15T02:05:10.560Z,78.50
2019-03-15T02:07:41.026Z,78.90
2019-03-15T02:10:11.587Z,79.30
2019-03-15T02:12:42.053Z,79.50
2019-03-15T02:15:12.725Z,79.70
2019-03-15T02:17:43.158Z,80.30
2019-03-15T02:20:13.740Z,80.70
2019-03-15T02:22:44.280Z,80.80
2019-03-15T02:25:14.754Z,81.00
2019-03-15T02:27:45.290Z,81.20
2019-03-15T02:30:15.865Z,81.20
2019-03-15T02:32:46.353Z,81.40
2019-03-15T02:35:16.861Z,81.70
2019-03-15T02:37:47.342Z,81.70
2019-03-15T02:40:17.853Z,82.00
2019-03-15T02:42:48.416Z,82.30
2019-03-15T02:45:18.891Z,82.40
2019-03-15T02:47:49.600Z,82.60
2019-03-15T02:50:20.081Z,82.80
2019-03-15T02:52:50.613Z,83.00
2019-03-15T02:55:21.256Z,83.20
2019-03-15T02:57:52.085Z,83.30
2019-03-15T03:00:22.595Z,83.50
2019-03-15T03:02:54.005Z,83.80
2019-03-15T03:05:24.790Z,83.90
2019-03-15T03:07:55.211Z,84.00
2019-03-15T03:10:25.634Z,84.20
2019-03-15T03:12:56.119Z,84.20
2019-03-15T03:15:27.509Z,84.30
2019-03-15T03:17:57.922Z,84.50
2019-03-15T03:20:28.444Z,85.00
2019-03-15T03:22:58.974Z,85.40
2019-03-15T03:25:29.410Z,86.00
2019-03-15T03:28:01.250Z,86.50
2019-03-15T03:30:31.919Z,86.90
2019-03-15T03:33:02.344Z,87.10
2019-03-15T03:35:33.719Z,87.10
2019-03-15T03:38:05.408Z,87.10
2019-03-15T03:40:35.831Z,87.10
2019-03-15T03:43:06.382Z,87.30
2019-03-15T03:45:36.781Z,87.10
2019-03-15T03:48:07.320Z,87.80
2019-03-15T03:50:38.937Z,88.40
2019-03-15T03:53:09.513Z,89.40
2019-03-15T03:55:40.068Z,89.30
2019-03-15T03:58:11.560Z,89.90
2019-03-15T04:00:42.009Z,90.30
2019-03-15T04:03:12.487Z,90.30
2019-03-15T04:05:43.071Z,90.60
2019-03-15T04:08:13.644Z,90.70
2019-03-15T04:10:44.091Z,90.90
2019-03-15T04:13:14.549Z,91.20
2019-03-15T04:15:44.996Z,91.10
2019-03-15T04:18:15.449Z,91.30
2019-03-15T04:20:45.885Z,92.00
2019-03-15T04:23:16.305Z,91.70
2019-03-15T04:25:46.734Z,91.90
2019-03-15T04:28:17.195Z,92.00
2019-03-15T04:30:47.654Z,92.00
2019-03-15T04:33:19.074Z,92.10
2019-03-15T04:35:49.559Z,92.20
2019-03-15T04:38:20.037Z,92.30
2019-03-15T04:40:50.526Z,92.50
2019-03-15T04:43:21.003Z,92.60
2019-03-15T04:45:51.488Z,92.70
2019-03-15T04:48:21.965Z,92.80
2019-03-15T04:50:52.499Z,92.70
2019-03-15T04:53:22.996Z,92.80
2019-03-15T04:55:53.456Z,93.00
2019-03-15T04:58:24.874Z,93.10
2019-03-15T05:00:55.329Z,93.10
2019-03-15T05:03:25.775Z,93.30
2019-03-15T05:06:03.146Z,93.20
2019-03-15T05:08:28.350Z,93.60
2019-03-15T05:10:58.754Z,93.60
2019-03-15T05:13:29.194Z,93.50
2019-03-15T05:15:59.680Z,93.60
2019-03-15T05:18:30.108Z,93.60
2019-03-15T05:21:00.592Z,93.60
2019-03-15T05:23:31.095Z,93.40
2019-03-15T05:26:01.569Z,93.50
2019-03-15T05:28:32.059Z,93.80
2019-03-15T05:31:02.509Z,93.90
2019-03-15T05:33:32.964Z,93.60
2019-03-15T05:36:03.467Z,93.90
2019-03-15T05:38:35.066Z,94.20
2019-03-15T05:41:05.737Z,94.60
2019-03-15T05:43:36.252Z,94.80
2019-03-15T05:46:06.668Z,94.80
2019-03-15T05:48:37.554Z,94.90
2019-03-15T05:51:08.012Z,95.10
2019-03-15T05:53:38.506Z,95.00
2019-03-15T05:56:08.953Z,94.80
2019-03-15T05:58:39.466Z,95.00
2019-03-15T06:01:09.924Z,94.90
2019-03-15T06:03:48.387Z,94.80
2019-03-15T06:06:12.401Z,94.80
2019-03-15T06:08:42.887Z,94.90
2019-03-15T06:11:13.386Z,95.00
2019-03-15T06:13:43.795Z,94.90
2019-03-15T06:16:14.443Z,95.00
2019-03-15T06:18:45.033Z,95.00
2019-03-15T06:21:15.467Z,94.70
2019-03-15T06:23:46.024Z,94.30
2019-03-15T06:26:16.509Z,94.20
2019-03-15T06:28:47.058Z,94.20
2019-03-15T06:31:17.644Z,94.10
2019-03-15T06:33:49.013Z,94.30
2019-03-15T06:36:19.668Z,94.30
2019-03-15T06:38:50.255Z,94.20
2019-03-15T06:41:20.769Z,94.30
2019-03-15T06:43:51.264Z,94.00
2019-03-15T06:46:22.816Z,93.70
2019-03-15T06:48:53.354Z,93.70
2019-03-15T06:51:23.947Z,93.90
2019-03-15T06:53:54.435Z,94.30
2019-03-15T06:56:25.001Z,94.20
2019-03-15T06:58:55.547Z,94.40
2019-03-15T07:01:26.041Z,94.20
2019-03-15T07:03:56.541Z,94.10
2019-03-15T07:06:26.977Z,94.00
2019-03-15T07:08:57.449Z,94.10
2019-03-15T07:11:27.872Z,94.30
2019-03-15T07:13:58.377Z,94.20
2019-03-15T07:16:28.807Z,94.20
2019-03-15T07:18:59.295Z,94.20
2019-03-15T07:21:29.769Z,94.40
2019-03-15T07:24:00.342Z,94.00
2019-03-15T07:26:30.690Z,94.10
2019-03-15T07:29:01.149Z,94.20
2019-03-15T07:31:31.576Z,94.20
2019-03-15T07:34:02.116Z,94.50
2019-03-15T07:36:32.537Z,94.40
2019-03-15T07:39:04.752Z,94.60
2019-03-15T07:41:35.399Z,94.80
2019-03-15T07:44:06.836Z,94.50
2019-03-15T07:46:38.294Z,94.50
2019-03-15T07:49:08.736Z,93.90
2019-03-15T07:51:39.215Z,93.60
2019-03-15T07:54:09.708Z,93.10
2019-03-15T07:56:40.277Z,92.20
2019-03-15T07:59:10.811Z,92.10
2019-03-15T08:01:41.295Z,91.70
2019-03-15T08:04:17.113Z,92.00
2019-03-15T08:06:43.938Z,91.30
2019-03-15T08:09:14.382Z,91.20
2019-03-15T08:11:44.944Z,90.80
2019-03-15T08:14:17.800Z,89.60
2019-03-15T08:16:48.312Z,88.40
2019-03-15T08:19:18.878Z,84.90
2019-03-15T08:21:49.412Z,83.70
2019-03-15T08:24:19.890Z,82.70
2019-03-15T08:26:50.456Z,81.30
2019-03-15T08:29:21.190Z,81.10
2019-03-15T08:31:51.622Z,80.50
2019-03-15T08:34:22.087Z,80.10
2019-03-15T08:36:52.588Z,81.50
2019-03-15T08:39:23.060Z,80.60
2019-03-15T08:41:53.477Z,81.90
2019-03-15T08:44:24.973Z,83.40
2019-03-15T08:46:55.414Z,83.50
2019-03-15T08:49:25.877Z,83.40
2019-03-15T08:52:03.804Z,82.80
2019-03-15T08:54:28.472Z,83.20
2019-03-15T08:56:59.023Z,82.30
2019-03-15T08:59:29.586Z,82.70
2019-03-15T09:02:00.005Z,80.60
2019-03-15T09:04:30.613Z,80.70
2019-03-15T09:07:01.083Z,80.30
2019-03-15T09:09:31.591Z,77.60
2019-03-15T09:12:02.164Z,75.70
2019-03-15T09:14:32.703Z,75.90
2019-03-15T09:17:03.162Z,75.90
2019-03-15T09:19:33.632Z,75.70
2019-03-15T09:22:04.116Z,76.00
2019-03-15T09:24:34.550Z,75.30
2019-03-15T09:27:05.014Z,74.30
2019-03-15T09:29:35.550Z,72.50
2019-03-15T09:32:09.161Z,74.10
2019-03-15T09:34:38.174Z,75.00
2019-03-15T09:37:08.680Z,75.60
2019-03-15T09:39:39.170Z,74.70
2019-03-15T09:42:09.733Z,74.60
2019-03-15T09:44:40.220Z,73.90
2019-03-15T09:47:10.722Z,74.70
2019-03-15T09:49:41.204Z,74.80
2019-03-15T09:52:12.648Z,74.70
2019-03-15T09:54:43.319Z,74.80
2019-03-15T09:57:13.747Z,75.30
2019-03-15T09:59:44.218Z,76.00
2019-03-15T10:02:14.670Z,75.80
2019-03-15T10:04:45.102Z,75.10
2019-03-15T10:07:15.559Z,74.50
2019-03-15T10:09:46.511Z,74.00
2019-03-15T10:12:16.991Z,74.30
2019-03-15T10:14:47.454Z,74.70
2019-03-15T10:17:17.888Z,74.80
2019-03-15T10:19:48.384Z,75.30
2019-03-15T10:22:18.798Z,77.70
2019-03-15T10:24:49.250Z,79.90
2019-03-15T10:27:19.767Z,80.70
2019-03-15T10:29:50.289Z,80.10
2019-03-15T10:32:20.876Z,80.10
2019-03-15T10:34:51.305Z,80.80
2019-03-15T10:37:21.778Z,77.70
2019-03-15T10:39:52.248Z,77.60
2019-03-15T10:42:22.706Z,76.80
2019-03-15T10:44:53.096Z,76.70
2019-03-15T10:47:23.530Z,77.60
2019-03-15T10:49:53.946Z,77.10
2019-03-15T10:52:24.410Z,77.20
2019-03-15T10:54:55.902Z,73.90
2019-03-15T10:57:27.339Z,74.10
2019-03-15T10:59:57.790Z,73.90
2019-03-15T11:02:28.275Z,72.60
2019-03-15T11:04:58.732Z,72.30
2019-03-15T11:07:29.189Z,74.60
2019-03-15T11:09:59.649Z,77.70
2019-03-15T11:12:30.064Z,81.20
2019-03-15T11:15:00.605Z,82.30
2019-03-15T11:17:31.113Z,83.90
2019-03-15T11:20:01.540Z,87.00
2019-03-15T11:22:32.126Z,86.50
2019-03-15T11:25:02.687Z,85.80
2019-03-15T11:27:34.264Z,83.20
2019-03-15T11:30:04.996Z,83.60
2019-03-15T11:32:35.533Z,82.20
2019-03-15T11:35:07.550Z,81.40
2019-03-15T11:37:38.041Z,81.70
2019-03-15T11:40:09.131Z,82.30
2019-03-15T11:42:39.538Z,82.00
2019-03-15T11:45:10.008Z,81.90
2019-03-15T11:48:01.068Z,80.90
2019-03-15T11:50:12.641Z,79.60
2019-03-15T11:52:43.196Z,78.50
2019-03-15T11:55:13.656Z,79.40
2019-03-15T11:57:45.164Z,79.00
2019-03-15T12:00:15.620Z,78.00
2019-03-15T12:02:46.113Z,78.20
2019-03-15T12:05:16.719Z,79.10
2019-03-15T12:07:47.207Z,78.80
2019-03-15T12:10:17.802Z,79.10
2019-03-15T12:12:48.366Z,78.70
2019-03-15T12:15:18.955Z,77.80
2019-03-15T12:17:49.527Z,78.50
2019-03-15T12:20:20.061Z,78.90
2019-03-15T12:22:50.691Z,78.60
2019-03-15T12:25:21.221Z,78.00
2019-03-15T12:27:51.734Z,76.80
2019-03-15T12:30:22.251Z,77.10
2019-03-15T12:32:52.833Z,76.90
2019-03-15T12:35:23.306Z,77.00
2019-03-15T12:37:54.051Z,77.10
2019-03-15T12:40:24.468Z,77.50
2019-03-15T12:42:55.028Z,77.10
2019-03-15T12:45:25.563Z,75.90
2019-03-15T12:47:56.161Z,75.90
2019-03-15T12:50:26.691Z,75.80
2019-03-15T12:52:57.390Z,74.70
2019-03-15T12:55:27.861Z,73.60
2019-03-15T12:57:58.418Z,72.40
2019-03-15T13:00:28.920Z,72.70
2019-03-15T13:02:59.454Z,73.00
2019-03-15T13:05:30.030Z,72.30
2019-03-15T13:08:00.565Z,72.60
2019-03-15T13:10:31.093Z,73.10
2019-03-15T13:13:01.647Z,73.00
2019-03-15T13:15:32.358Z,72.60
2019-03-15T13:18:02.889Z,71.80
2019-03-15T13:20:33.495Z,71.90
2019-03-15T13:23:04.082Z,71.70
2019-03-15T13:25:34.577Z,70.80
2019-03-15T13:28:05.158Z,71.40
2019-03-15T13:30:35.985Z,70.70
2019-03-15T13:33:19.277Z,69.50
2019-03-15T13:35:38.783Z,70.60
2019-03-15T13:38:09.374Z,69.90
2019-03-15T13:40:40.975Z,70.80
2019-03-15T13:43:11.480Z,71.60
2019-03-15T13:45:41.923Z,71.00
2019-03-15T13:48:12.552Z,70.60
2019-03-15T13:50:43.073Z,71.00
2019-03-15T13:53:13.581Z,71.20
2019-03-15T13:55:44.046Z,71.10
2019-03-15T13:58:14.515Z,70.30
2019-03-15T14:00:45.021Z,69.50
2019-03-15T14:03:15.607Z,69.60
2019-03-15T14:05:46.120Z,69.80
2019-03-15T14:08:16.762Z,70.10
2019-03-15T14:10:49.817Z,70.70
2019-03-15T14:13:20.454Z,69.60
2019-03-15T14:15:50.864Z,68.10
2019-03-15T14:18:21.728Z,67.40
2019-03-15T14:20:52.384Z,68.50
2019-03-15T14:23:22.876Z,68.30
2019-03-15T14:25:53.370Z,66.90
2019-03-15T14:28:23.881Z,67.10
2019-03-15T14:30:54.447Z,66.70
2019-03-15T14:33:24.939Z,66.60
2019-03-15T14:35:55.345Z,66.60
2019-03-15T14:38:26.011Z,66.60
2019-03-15T14:40:56.526Z,66.20
2019-03-15T14:43:27.058Z,66.90
2019-03-15T14:45:57.917Z,66.70
2019-03-15T14:48:28.648Z,65.70
2019-03-15T14:50:59.118Z,66.10
2019-03-15T14:53:29.585Z,64.60
2019-03-15T14:56:00.022Z,65.30
2019-03-15T14:58:30.496Z,65.50
2019-03-15T15:01:00.969Z,65.30
2019-03-15T15:03:31.564Z,64.60
2019-03-15T15:06:02.092Z,65.30
2019-03-15T15:08:32.593Z,65.70
2019-03-15T15:11:03.213Z,66.20
2019-03-15T15:13:33.732Z,65.00
2019-03-15T15:16:04.370Z,64.60
2019-03-15T15:18:34.952Z,64.60
2019-03-15T15:21:05.580Z,64.60
2019-03-15T15:23:37.068Z,64.50
2019-03-15T15:26:07.645Z,64.50
2019-03-15T15:28:38.228Z,64.70
2019-03-15T15:31:08.820Z,65.10
2019-03-15T15:33:39.288Z,65.10
2019-03-15T15:36:09.889Z,66.40
2019-03-15T15:38:40.399Z,66.50
2019-03-15T15:41:11.041Z,65.40
2019-03-15T15:43:41.593Z,65.20
2019-03-15T15:46:12.211Z,64.60
2019-03-15T15:48:42.734Z,64.10
2019-03-15T15:51:13.257Z,64.40
2019-03-15T15:53:43.849Z,62.70
2019-03-15T15:56:14.449Z,62.60
2019-03-15T15:58:44.896Z,62.70
2019-03-15T16:01:15.498Z,62.80
2019-03-15T16:03:45.969Z,63.20
2019-03-15T16:06:16.449Z,63.70
2019-03-15T16:08:46.917Z,63.70
2019-03-15T16:11:17.533Z,64.40
2019-03-15T16:13:47.957Z,65.30
2019-03-15T16:16:18.522Z,65.90
2019-03-15T16:18:49.056Z,66.00
2019-03-15T16:21:19.830Z,65.90
2019-03-15T16:23:50.518Z,66.00
2019-03-15T16:26:21.015Z,65.70
2019-03-15T16:28:51.456Z,65.50
2019-03-15T16:31:21.920Z,66.00
2019-03-15T16:33:52.528Z,65.60
2019-03-15T16:36:22.975Z,65.70
2019-03-15T16:38:53.614Z,66.10
2019-03-15T16:41:24.239Z,66.80
2019-03-15T16:43:54.830Z,68.20
2019-03-15T16:46:25.297Z,68.40
2019-03-15T16:48:55.816Z,69.20
2019-03-15T16:51:26.365Z,69.70
2019-03-15T16:53:57.176Z,70.40
2019-03-15T16:56:28.713Z,70.80
2019-03-15T16:59:00.568Z,71.10
2019-03-15T17:01:33.382Z,71.30
2019-03-15T17:04:07.368Z,71.50
2019-03-15T17:06:39.483Z,72.10
2019-03-15T17:09:11.639Z,72.20
2019-03-15T17:11:42.092Z,72.30
2019-03-15T17:14:25.110Z,72.50
2019-03-15T17:16:50.403Z,72.80
2019-03-15T17:19:22.670Z,73.20
2019-03-15T17:21:58.022Z,73.30
2019-03-15T17:24:34.728Z,73.40
2019-03-15T17:27:06.912Z,73.70
2019-03-15T17:29:39.225Z,73.70
2019-03-15T17:32:13.574Z,73.70
2019-03-15T17:34:45.969Z,73.70
2019-03-15T17:37:18.379Z,73.80
2019-03-15T17:39:57.339Z,74.10
2019-03-15T17:42:29.682Z,73.80
2019-03-15T17:45:04.152Z,73.90
2019-03-15T17:47:36.938Z,73.90
2019-03-15T17:50:10.019Z,74.10
2019-03-15T17:52:40.525Z,74.20
2019-03-15T17:55:11.082Z,74.20
2019-03-15T17:57:47.349Z,74.30
2019-03-15T18:00:29.819Z,74.30
2019-03-15T18:03:19.211Z,74.40
2019-03-15T18:05:38.141Z,74.40
2019-03-15T18:08:10.079Z,74.70
2019-03-15T18:10:43.844Z,74.70
2019-03-15T18:13:20.033Z,74.80
2019-03-15T18:15:52.285Z,74.90
2019-03-15T18:18:26.135Z,75.20
2019-03-15T18:20:57.820Z,75.10
2019-03-15T18:23:28.347Z,75.30
2019-03-15T18:25:58.868Z,75.20
2019-03-15T18:28:29.815Z,75.40
2019-03-15T18:31:02.904Z,75.50
2019-03-15T18:33:35.653Z,75.40
2019-03-15T18:36:06.281Z,75.30
2019-03-15T18:38:36.960Z,75.20
2019-03-15T18:41:08.424Z,75.30
2019-03-15T18:43:42.251Z,75.20
2019-03-15T18:46:14.381Z,75.10
2019-03-15T18:48:46.883Z,75.30
2019-03-15T18:51:17.434Z,75.40
2019-03-15T18:53:47.955Z,75.20
2019-03-15T18:56:26.830Z,75.30
2019-03-15T18:58:59.179Z,75.50
2019-03-15T19:01:33.783Z,75.40
2019-03-15T19:04:04.367Z,75.30
2019-03-15T19:06:34.897Z,75.30
2019-03-15T19:09:08.467Z,75.30
2019-03-15T19:11:43.852Z,75.30
2019-03-15T19:14:14.304Z,75.30
2019-03-15T19:16:44.829Z,75.30
2019-03-15T19:19:22.405Z,75.50
2019-03-15T19:21:54.629Z,76.00
2019-03-15T19:24:25.318Z,76.20
2019-03-15T19:26:57.416Z,76.20
2019-03-15T19:29:29.225Z,76.40
2019-03-15T19:31:59.881Z,76.10
2019-03-15T19:34:32.464Z,76.10
2019-03-15T19:37:04.572Z,76.00
2019-03-15T19:39:39.779Z,76.10
2019-03-15T19:42:14.425Z,76.00
2019-03-15T19:44:48.600Z,76.00
2019-03-15T19:47:18.760Z,76.10
2019-03-15T19:49:50.109Z,76.10
2019-03-15T19:52:29.040Z,76.40
2019-03-15T19:55:01.426Z,76.70
2019-03-15T19:57:33.368Z,77.00
2019-03-15T20:00:08.033Z,76.90
2019-03-15T20:02:41.544Z,77.10
2019-03-15T20:05:13.791Z,77.20
2019-03-15T20:07:50.572Z,77.80
2019-03-15T20:10:22.777Z,78.80
2019-03-15T20:12:54.423Z,79.20
2019-03-15T20:15:50.893Z,79.40
2019-03-15T20:18:00.736Z,80.10
2019-03-15T20:20:40.937Z,80.10
2019-03-15T20:23:13.840Z,80.10
2019-03-15T20:25:46.440Z,80.40
2019-03-15T20:28:17.010Z,81.20
2019-03-15T20:30:52.264Z,81.10
2019-03-15T20:33:23.207Z,81.60
2019-03-15T20:35:55.227Z,81.70
2019-03-15T20:38:27.801Z,82.10
2019-03-15T20:41:00.410Z,82.50
2019-03-15T20:43:33.002Z,82.80
2019-03-15T20:46:05.171Z,83.00
2019-03-15T20:48:35.837Z,82.90
2019-03-15T20:51:08.161Z,83.10
2019-03-15T20:53:40.561Z,83.30
2019-03-15T20:56:11.103Z,83.30
2019-03-15T20:58:41.733Z,83.90
2019-03-15T21:01:12.384Z,83.30
2019-03-15T21:03:55.587Z,83.30
2019-03-15T21:06:15.308Z,83.30
2019-03-15T21:08:45.855Z,83.40
2019-03-15T21:11:16.360Z,83.50
2019-03-15T21:13:46.978Z,83.60
2019-03-15T21:16:18.411Z,83.70
2019-03-15T21:18:50.791Z,83.60
2019-03-15T21:21:21.350Z,83.80
2019-03-15T21:23:51.830Z,83.90
2019-03-15T21:26:22.308Z,84.50
2019-03-15T21:28:52.819Z,84.80
2019-03-15T21:31:23.319Z,84.00
2019-03-15T21:33:55.454Z,84.00
2019-03-15T21:36:25.924Z,84.10
2019-03-15T21:38:56.414Z,84.00
2019-03-15T21:41:26.873Z,84.70
2019-03-15T21:43:58.212Z,84.00
2019-03-15T21:46:28.616Z,84.00
2019-03-15T21:48:59.093Z,83.70
2019-03-15T21:51:29.564Z,83.90
2019-03-15T21:54:00.067Z,84.00
2019-03-15T21:56:30.500Z,83.90
2019-03-15T21:59:02.028Z,83.90
2019-03-15T22:01:32.484Z,83.90
2019-03-15T22:04:03.010Z,83.50
2019-03-15T22:06:33.460Z,83.30
2019-03-15T22:09:04.615Z,84.00
2019-03-15T22:11:36.261Z,83.60
2019-03-15T22:14:06.681Z,84.10
2019-03-15T22:16:37.195Z,85.20
2019-03-15T22:19:07.699Z,86.10
2019-03-15T22:21:38.218Z,86.70
2019-03-15T22:24:08.716Z,87.40
2019-03-15T22:26:39.255Z,88.00
2019-03-15T22:29:09.864Z,88.50
2019-03-15T22:31:40.314Z,89.10
2019-03-15T22:34:10.928Z,89.40
2019-03-15T22:36:41.378Z,90.00
2019-03-15T22:39:11.947Z,90.20
2019-03-15T22:41:42.398Z,90.40
2019-03-15T22:44:12.896Z,90.60
2019-03-15T22:46:43.395Z,90.70
2019-03-15T22:49:13.902Z,90.80
2019-03-15T22:51:44.451Z,91.20
2019-03-15T22:54:15.021Z,91.50
2019-03-15T22:56:45.701Z,91.70
2019-03-15T22:59:16.284Z,91.90
2019-03-15T23:01:46.917Z,92.40
2019-03-15T23:04:17.687Z,92.50
2019-03-15T23:06:48.244Z,92.80
2019-03-15T23:09:18.877Z,92.90
2019-03-15T23:11:49.496Z,93.20
2019-03-15T23:14:20.725Z,93.40
2019-03-15T23:16:51.347Z,93.60
2019-03-15T23:19:21.834Z,93.70
2019-03-15T23:21:52.476Z,93.80
2019-03-15T23:24:23.018Z,94.00
2019-03-15T23:26:53.804Z,94.10
2019-03-15T23:29:24.399Z,94.20
2019-03-15T23:31:54.963Z,94.30
2019-03-15T23:34:25.465Z,94.40
2019-03-15T23:36:56.037Z,94.30
2019-03-15T23:39:27.089Z,94.20
2019-03-15T23:41:57.622Z,94.50
2019-03-15T23:44:28.089Z,94.80
2019-03-15T23:46:58.573Z,95.00
2019-03-15T23:49:29.007Z,94.90
2019-03-15T23:51:59.621Z,95.00
2019-03-15T23:54:30.114Z,95.20
2019-03-15T23:57:00.604Z,95.00
2019-03-15T23:59:31.138Z,94.60
